sensor_id;sensor_type;location;lat;lon;timestamp;P1;durP1;ratioP1;P2;durP2;ratioP2
6671;SDS011;3372;48.690;12.362;2024-02-26T00:01:26;11.30;;;7.25;;
6671;SDS011;3372;48.690;12.362;2024-02-26T00:03:53;12.50;;;7.82;;
6671;SDS011;3372;48.690;12.362;2024-02-26T00:06:20;14.90;;;8.80;;
6671;SDS011;3372;48.690;12.362;2024-02-26T00:08:46;18.23;;;8.60;;
6671;SDS011;3372;48.690;12.362;2024-02-26T00:11:12;14.05;;;8.38;;
6671;SDS011;3372;48.690;12.362;2024-02-26T00:13:38;13.30;;;8.75;;
6671;SDS011;3372;48.690;12.362;2024-02-26T00:16:04;14.05;;;9.15;;
6671;SDS011;3372;48.690;12.362;2024-02-26T00:18:31;10.88;;;7.80;;
6671;SDS011;3372;48.690;12.362;2024-02-26T00:20:57;14.02;;;8.38;;
6671;SDS011;3372;48.690;12.362;2024-02-26T00:23:23;14.48;;;8.82;;
6671;SDS011;3372;48.690;12.362;2024-02-26T00:25:49;14.18;;;8.40;;
6671;SDS011;3372;48.690;12.362;2024-02-26T00:28:15;13.52;;;8.40;;
6671;SDS011;3372;48.690;12.362;2024-02-26T00:30:41;15.95;;;8.95;;
6671;SDS011;3372;48.690;12.362;2024-02-26T00:33:07;14.02;;;9.30;;
6671;SDS011;3372;48.690;12.362;2024-02-26T00:35:33;13.82;;;8.65;;
6671;SDS011;3372;48.690;12.362;2024-02-26T00:37:59;13.27;;;8.10;;
6671;SDS011;3372;48.690;12.362;2024-02-26T00:40:27;13.32;;;9.07;;
6671;SDS011;3372;48.690;12.362;2024-02-26T00:42:53;11.43;;;8.23;;
6671;SDS011;3372;48.690;12.362;2024-02-26T00:45:18;16.65;;;9.82;;
6671;SDS011;3372;48.690;12.362;2024-02-26T00:47:44;13.25;;;8.57;;
6671;SDS011;3372;48.690;12.362;2024-02-26T00:50:12;14.98;;;8.30;;
6671;SDS011;3372;48.690;12.362;2024-02-26T00:52:38;13.95;;;8.57;;
6671;SDS011;3372;48.690;12.362;2024-02-26T00:55:04;12.82;;;8.07;;
6671;SDS011;3372;48.690;12.362;2024-02-26T00:57:31;13.90;;;8.40;;
6671;SDS011;3372;48.690;12.362;2024-02-26T00:59:57;13.10;;;8.25;;
6671;SDS011;3372;48.690;12.362;2024-02-26T01:02:24;13.88;;;8.23;;
6671;SDS011;3372;48.690;12.362;2024-02-26T01:04:50;12.98;;;8.25;;
6671;SDS011;3372;48.690;12.362;2024-02-26T01:07:16;15.98;;;8.50;;
6671;SDS011;3372;48.690;12.362;2024-02-26T01:09:42;11.68;;;7.72;;
6671;SDS011;3372;48.690;12.362;2024-02-26T01:12:08;13.82;;;8.73;;
6671;SDS011;3372;48.690;12.362;2024-02-26T01:14:34;14.85;;;8.70;;
6671;SDS011;3372;48.690;12.362;2024-02-26T01:17:00;12.80;;;8.02;;
6671;SDS011;3372;48.690;12.362;2024-02-26T01:19:26;12.88;;;8.68;;
6671;SDS011;3372;48.690;12.362;2024-02-26T01:21:52;12.93;;;8.73;;
6671;SDS011;3372;48.690;12.362;2024-02-26T01:24:18;13.57;;;8.95;;
6671;SDS011;3372;48.690;12.362;2024-02-26T01:26:44;13.95;;;8.77;;
6671;SDS011;3372;48.690;12.362;2024-02-26T01:29:10;13.50;;;8.68;;
6671;SDS011;3372;48.690;12.362;2024-02-26T01:31:36;14.05;;;8.85;;
6671;SDS011;3372;48.690;12.362;2024-02-26T01:34:02;12.50;;;8.32;;
6671;SDS011;3372;48.690;12.362;2024-02-26T01:36:28;12.95;;;8.48;;
6671;SDS011;3372;48.690;12.362;2024-02-26T01:38:54;16.23;;;8.82;;
6671;SDS011;3372;48.690;12.362;2024-02-26T01:41:20;14.98;;;8.85;;
6671;SDS011;3372;48.690;12.362;2024-02-26T01:43:46;15.57;;;8.90;;
6671;SDS011;3372;48.690;12.362;2024-02-26T01:46:13;13.18;;;8.32;;
6671;SDS011;3372;48.690;12.362;2024-02-26T01:48:43;13.60;;;8.70;;
6671;SDS011;3372;48.690;12.362;2024-02-26T01:51:09;16.13;;;9.20;;
6671;SDS011;3372;48.690;12.362;2024-02-26T01:53:36;11.98;;;8.35;;
6671;SDS011;3372;48.690;12.362;2024-02-26T01:56:02;14.55;;;8.65;;
6671;SDS011;3372;48.690;12.362;2024-02-26T01:58:29;18.13;;;9.68;;
6671;SDS011;3372;48.690;12.362;2024-02-26T02:03:22;14.40;;;9.10;;
6671;SDS011;3372;48.690;12.362;2024-02-26T02:05:48;15.07;;;8.88;;
6671;SDS011;3372;48.690;12.362;2024-02-26T02:08:14;13.27;;;9.38;;
6671;SDS011;3372;48.690;12.362;2024-02-26T02:10:41;15.63;;;9.40;;
6671;SDS011;3372;48.690;12.362;2024-02-26T02:15:34;15.20;;;8.88;;
6671;SDS011;3372;48.690;12.362;2024-02-26T02:18:00;13.80;;;8.70;;
6671;SDS011;3372;48.690;12.362;2024-02-26T02:20:31;14.18;;;8.65;;
6671;SDS011;3372;48.690;12.362;2024-02-26T02:22:58;16.35;;;10.13;;
6671;SDS011;3372;48.690;12.362;2024-02-26T02:25:24;15.38;;;8.85;;
6671;SDS011;3372;48.690;12.362;2024-02-26T02:27:50;16.95;;;9.52;;
6671;SDS011;3372;48.690;12.362;2024-02-26T02:30:16;13.68;;;8.70;;
6671;SDS011;3372;48.690;12.362;2024-02-26T02:32:42;15.00;;;9.07;;
6671;SDS011;3372;48.690;12.362;2024-02-26T02:35:08;15.18;;;9.57;;
6671;SDS011;3372;48.690;12.362;2024-02-26T02:37:34;12.63;;;8.52;;
6671;SDS011;3372;48.690;12.362;2024-02-26T02:42:28;14.07;;;9.20;;
6671;SDS011;3372;48.690;12.362;2024-02-26T02:44:54;12.02;;;8.70;;
6671;SDS011;3372;48.690;12.362;2024-02-26T02:47:19;15.30;;;10.13;;
6671;SDS011;3372;48.690;12.362;2024-02-26T02:49:45;15.27;;;10.10;;
6671;SDS011;3372;48.690;12.362;2024-02-26T02:52:11;16.83;;;10.32;;
6671;SDS011;3372;48.690;12.362;2024-02-26T02:54:37;21.77;;;11.05;;
6671;SDS011;3372;48.690;12.362;2024-02-26T02:57:06;19.60;;;11.15;;
6671;SDS011;3372;48.690;12.362;2024-02-26T02:59:32;18.05;;;10.57;;
6671;SDS011;3372;48.690;12.362;2024-02-26T03:01:58;16.90;;;9.95;;
6671;SDS011;3372;48.690;12.362;2024-02-26T03:04:24;19.50;;;12.27;;
6671;SDS011;3372;48.690;12.362;2024-02-26T03:06:50;19.17;;;10.95;;
6671;SDS011;3372;48.690;12.362;2024-02-26T03:09:16;16.45;;;10.55;;
6671;SDS011;3372;48.690;12.362;2024-02-26T03:11:42;19.17;;;11.40;;
6671;SDS011;3372;48.690;12.362;2024-02-26T03:14:08;19.08;;;11.55;;
6671;SDS011;3372;48.690;12.362;2024-02-26T03:16:34;16.55;;;10.82;;
6671;SDS011;3372;48.690;12.362;2024-02-26T03:19:00;18.45;;;10.38;;
6671;SDS011;3372;48.690;12.362;2024-02-26T03:21:28;16.02;;;10.25;;
6671;SDS011;3372;48.690;12.362;2024-02-26T03:23:54;18.60;;;11.10;;
6671;SDS011;3372;48.690;12.362;2024-02-26T03:26:20;19.52;;;12.38;;
6671;SDS011;3372;48.690;12.362;2024-02-26T03:28:46;20.00;;;12.57;;
6671;SDS011;3372;48.690;12.362;2024-02-26T03:31:12;18.60;;;11.25;;
6671;SDS011;3372;48.690;12.362;2024-02-26T03:33:38;18.02;;;10.80;;
6671;SDS011;3372;48.690;12.362;2024-02-26T03:36:04;18.10;;;10.95;;
6671;SDS011;3372;48.690;12.362;2024-02-26T03:38:32;17.80;;;10.52;;
6671;SDS011;3372;48.690;12.362;2024-02-26T03:40:58;19.10;;;11.82;;
6671;SDS011;3372;48.690;12.362;2024-02-26T03:43:24;18.63;;;11.40;;
6671;SDS011;3372;48.690;12.362;2024-02-26T03:45:50;21.63;;;13.30;;
6671;SDS011;3372;48.690;12.362;2024-02-26T03:48:16;19.45;;;12.35;;
6671;SDS011;3372;48.690;12.362;2024-02-26T03:50:42;19.30;;;13.32;;
6671;SDS011;3372;48.690;12.362;2024-02-26T03:53:08;20.05;;;13.68;;
6671;SDS011;3372;48.690;12.362;2024-02-26T03:55:36;22.27;;;13.65;;
6671;SDS011;3372;48.690;12.362;2024-02-26T03:58:02;18.98;;;12.80;;
6671;SDS011;3372;48.690;12.362;2024-02-26T04:00:28;22.85;;;14.60;;
6671;SDS011;3372;48.690;12.362;2024-02-26T04:02:55;20.90;;;14.00;;
6671;SDS011;3372;48.690;12.362;2024-02-26T04:05:21;22.15;;;13.40;;
6671;SDS011;3372;48.690;12.362;2024-02-26T04:07:47;21.02;;;13.35;;
6671;SDS011;3372;48.690;12.362;2024-02-26T04:10:13;24.23;;;16.85;;
6671;SDS011;3372;48.690;12.362;2024-02-26T04:12:39;30.13;;;15.05;;
6671;SDS011;3372;48.690;12.362;2024-02-26T04:15:06;26.13;;;15.07;;
6671;SDS011;3372;48.690;12.362;2024-02-26T04:17:32;26.17;;;16.17;;
6671;SDS011;3372;48.690;12.362;2024-02-26T04:19:58;27.02;;;15.90;;
6671;SDS011;3372;48.690;12.362;2024-02-26T04:22:24;23.85;;;14.52;;
6671;SDS011;3372;48.690;12.362;2024-02-26T04:24:50;25.77;;;13.48;;
6671;SDS011;3372;48.690;12.362;2024-02-26T04:27:16;21.67;;;14.13;;
6671;SDS011;3372;48.690;12.362;2024-02-26T04:29:42;23.20;;;16.00;;
6671;SDS011;3372;48.690;12.362;2024-02-26T04:32:08;23.55;;;14.07;;
6671;SDS011;3372;48.690;12.362;2024-02-26T04:34:34;22.92;;;13.95;;
6671;SDS011;3372;48.690;12.362;2024-02-26T04:37:00;26.05;;;15.00;;
6671;SDS011;3372;48.690;12.362;2024-02-26T04:39:26;22.88;;;13.98;;
6671;SDS011;3372;48.690;12.362;2024-02-26T04:41:52;25.75;;;13.98;;
6671;SDS011;3372;48.690;12.362;2024-02-26T04:44:18;20.90;;;13.02;;
6671;SDS011;3372;48.690;12.362;2024-02-26T04:46:44;24.40;;;14.73;;
6671;SDS011;3372;48.690;12.362;2024-02-26T04:49:10;26.00;;;14.27;;
6671;SDS011;3372;48.690;12.362;2024-02-26T04:51:36;20.77;;;13.45;;
6671;SDS011;3372;48.690;12.362;2024-02-26T04:54:02;23.80;;;15.50;;
6671;SDS011;3372;48.690;12.362;2024-02-26T04:56:28;21.45;;;11.85;;
6671;SDS011;3372;48.690;12.362;2024-02-26T04:58:54;19.65;;;12.57;;
6671;SDS011;3372;48.690;12.362;2024-02-26T05:01:20;21.52;;;13.40;;
6671;SDS011;3372;48.690;12.362;2024-02-26T05:03:46;22.85;;;14.75;;
6671;SDS011;3372;48.690;12.362;2024-02-26T05:06:12;24.23;;;15.32;;
6671;SDS011;3372;48.690;12.362;2024-02-26T05:08:38;22.95;;;13.73;;
6671;SDS011;3372;48.690;12.362;2024-02-26T05:11:04;23.23;;;12.75;;
6671;SDS011;3372;48.690;12.362;2024-02-26T05:13:31;26.60;;;13.13;;
6671;SDS011;3372;48.690;12.362;2024-02-26T05:15:57;28.55;;;14.20;;
6671;SDS011;3372;48.690;12.362;2024-02-26T05:18:23;20.83;;;12.80;;
6671;SDS011;3372;48.690;12.362;2024-02-26T05:20:49;24.40;;;13.05;;
6671;SDS011;3372;48.690;12.362;2024-02-26T05:23:15;22.63;;;14.85;;
6671;SDS011;3372;48.690;12.362;2024-02-26T05:25:41;25.83;;;15.50;;
6671;SDS011;3372;48.690;12.362;2024-02-26T05:28:07;23.08;;;15.07;;
6671;SDS011;3372;48.690;12.362;2024-02-26T05:30:33;31.15;;;16.67;;
6671;SDS011;3372;48.690;12.362;2024-02-26T05:32:59;31.73;;;16.90;;
6671;SDS011;3372;48.690;12.362;2024-02-26T05:35:25;28.48;;;16.13;;
6671;SDS011;3372;48.690;12.362;2024-02-26T05:37:51;26.73;;;15.10;;
6671;SDS011;3372;48.690;12.362;2024-02-26T05:40:18;26.52;;;15.68;;
6671;SDS011;3372;48.690;12.362;2024-02-26T05:42:44;28.05;;;14.63;;
6671;SDS011;3372;48.690;12.362;2024-02-26T05:45:10;20.58;;;13.13;;
6671;SDS011;3372;48.690;12.362;2024-02-26T05:47:36;28.27;;;14.90;;
6671;SDS011;3372;48.690;12.362;2024-02-26T05:50:08;24.63;;;14.73;;
6671;SDS011;3372;48.690;12.362;2024-02-26T05:52:35;24.80;;;14.65;;
6671;SDS011;3372;48.690;12.362;2024-02-26T05:55:02;45.30;;;17.30;;
6671;SDS011;3372;48.690;12.362;2024-02-26T05:57:28;26.95;;;15.57;;
6671;SDS011;3372;48.690;12.362;2024-02-26T05:59:54;33.30;;;15.75;;
6671;SDS011;3372;48.690;12.362;2024-02-26T06:02:20;22.08;;;12.77;;
6671;SDS011;3372;48.690;12.362;2024-02-26T06:04:46;25.63;;;13.75;;
6671;SDS011;3372;48.690;12.362;2024-02-26T06:07:12;35.25;;;15.13;;
6671;SDS011;3372;48.690;12.362;2024-02-26T06:09:38;27.88;;;12.75;;
6671;SDS011;3372;48.690;12.362;2024-02-26T06:12:04;19.70;;;12.13;;
6671;SDS011;3372;48.690;12.362;2024-02-26T06:14:30;23.60;;;14.10;;
6671;SDS011;3372;48.690;12.362;2024-02-26T06:16:56;21.80;;;11.88;;
6671;SDS011;3372;48.690;12.362;2024-02-26T06:19:23;19.38;;;12.38;;
6671;SDS011;3372;48.690;12.362;2024-02-26T06:21:49;22.30;;;12.40;;
6671;SDS011;3372;48.690;12.362;2024-02-26T06:24:16;22.55;;;13.38;;
6671;SDS011;3372;48.690;12.362;2024-02-26T06:26:41;23.85;;;12.98;;
6671;SDS011;3372;48.690;12.362;2024-02-26T06:29:07;21.17;;;13.82;;
6671;SDS011;3372;48.690;12.362;2024-02-26T06:31:33;18.83;;;12.07;;
6671;SDS011;3372;48.690;12.362;2024-02-26T06:33:59;19.15;;;12.23;;
6671;SDS011;3372;48.690;12.362;2024-02-26T06:36:25;20.38;;;11.93;;
6671;SDS011;3372;48.690;12.362;2024-02-26T06:38:51;19.38;;;12.85;;
6671;SDS011;3372;48.690;12.362;2024-02-26T06:41:20;18.02;;;11.00;;
6671;SDS011;3372;48.690;12.362;2024-02-26T06:43:52;16.88;;;10.55;;
6671;SDS011;3372;48.690;12.362;2024-02-26T06:46:18;16.40;;;11.48;;
6671;SDS011;3372;48.690;12.362;2024-02-26T06:48:44;18.30;;;11.00;;
6671;SDS011;3372;48.690;12.362;2024-02-26T06:51:09;16.58;;;10.88;;
6671;SDS011;3372;48.690;12.362;2024-02-26T06:53:35;18.73;;;10.90;;
6671;SDS011;3372;48.690;12.362;2024-02-26T06:56:01;17.60;;;10.73;;
6671;SDS011;3372;48.690;12.362;2024-02-26T06:58:27;18.38;;;10.63;;
6671;SDS011;3372;48.690;12.362;2024-02-26T07:00:53;21.00;;;11.93;;
6671;SDS011;3372;48.690;12.362;2024-02-26T07:03:19;54.92;;;30.25;;
6671;SDS011;3372;48.690;12.362;2024-02-26T07:05:47;57.22;;;32.05;;
6671;SDS011;3372;48.690;12.362;2024-02-26T07:08:13;56.70;;;30.83;;
6671;SDS011;3372;48.690;12.362;2024-02-26T07:10:39;44.88;;;24.27;;
6671;SDS011;3372;48.690;12.362;2024-02-26T07:13:05;26.17;;;16.92;;
6671;SDS011;3372;48.690;12.362;2024-02-26T07:15:31;20.77;;;14.10;;
6671;SDS011;3372;48.690;12.362;2024-02-26T07:17:58;18.38;;;12.10;;
6671;SDS011;3372;48.690;12.362;2024-02-26T07:20:28;18.02;;;11.20;;
6671;SDS011;3372;48.690;12.362;2024-02-26T07:22:54;19.17;;;11.55;;
6671;SDS011;3372;48.690;12.362;2024-02-26T07:25:20;34.10;;;11.73;;
6671;SDS011;3372;48.690;12.362;2024-02-26T07:27:46;26.77;;;13.57;;
6671;SDS011;3372;48.690;12.362;2024-02-26T07:30:12;39.10;;;15.20;;
6671;SDS011;3372;48.690;12.362;2024-02-26T07:32:38;31.50;;;13.10;;
6671;SDS011;3372;48.690;12.362;2024-02-26T07:35:04;42.22;;;16.75;;
6671;SDS011;3372;48.690;12.362;2024-02-26T07:37:30;30.58;;;12.18;;
6671;SDS011;3372;48.690;12.362;2024-02-26T07:39:56;32.38;;;16.42;;
6671;SDS011;3372;48.690;12.362;2024-02-26T07:42:22;41.05;;;23.65;;
6671;SDS011;3372;48.690;12.362;2024-02-26T07:44:48;36.08;;;17.50;;
6671;SDS011;3372;48.690;12.362;2024-02-26T07:47:14;21.48;;;13.65;;
6671;SDS011;3372;48.690;12.362;2024-02-26T07:49:40;44.22;;;27.25;;
6671;SDS011;3372;48.690;12.362;2024-02-26T07:52:06;33.67;;;19.58;;
6671;SDS011;3372;48.690;12.362;2024-02-26T07:54:32;52.38;;;26.77;;
6671;SDS011;3372;48.690;12.362;2024-02-26T07:56:58;21.95;;;14.80;;
6671;SDS011;3372;48.690;12.362;2024-02-26T07:59:24;18.40;;;11.65;;
6671;SDS011;3372;48.690;12.362;2024-02-26T08:01:51;14.85;;;10.98;;
6671;SDS011;3372;48.690;12.362;2024-02-26T08:04:17;18.65;;;13.40;;
6671;SDS011;3372;48.690;12.362;2024-02-26T08:06:43;15.13;;;12.35;;
6671;SDS011;3372;48.690;12.362;2024-02-26T08:09:09;12.35;;;7.75;;
6671;SDS011;3372;48.690;12.362;2024-02-26T08:11:35;13.23;;;7.95;;
6671;SDS011;3372;48.690;12.362;2024-02-26T08:14:01;14.55;;;9.25;;
6671;SDS011;3372;48.690;12.362;2024-02-26T08:16:27;12.18;;;9.82;;
6671;SDS011;3372;48.690;12.362;2024-02-26T08:18:53;13.48;;;9.82;;
6671;SDS011;3372;48.690;12.362;2024-02-26T08:21:19;13.55;;;8.63;;
6671;SDS011;3372;48.690;12.362;2024-02-26T08:23:45;14.40;;;9.95;;
6671;SDS011;3372;48.690;12.362;2024-02-26T08:26:11;8.88;;;7.03;;
6671;SDS011;3372;48.690;12.362;2024-02-26T08:28:37;13.73;;;8.80;;
6671;SDS011;3372;48.690;12.362;2024-02-26T08:31:03;11.77;;;7.35;;
6671;SDS011;3372;48.690;12.362;2024-02-26T08:33:30;6.75;;;3.90;;
6671;SDS011;3372;48.690;12.362;2024-02-26T08:35:56;6.90;;;3.83;;
6671;SDS011;3372;48.690;12.362;2024-02-26T08:38:23;5.88;;;3.63;;
6671;SDS011;3372;48.690;12.362;2024-02-26T08:40:49;7.88;;;4.18;;
6671;SDS011;3372;48.690;12.362;2024-02-26T08:43:16;5.97;;;3.45;;
6671;SDS011;3372;48.690;12.362;2024-02-26T08:45:43;8.50;;;3.85;;
6671;SDS011;3372;48.690;12.362;2024-02-26T08:48:09;6.07;;;3.65;;
6671;SDS011;3372;48.690;12.362;2024-02-26T08:50:35;6.38;;;3.85;;
6671;SDS011;3372;48.690;12.362;2024-02-26T08:53:01;6.05;;;3.55;;
6671;SDS011;3372;48.690;12.362;2024-02-26T08:55:28;5.75;;;3.50;;
6671;SDS011;3372;48.690;12.362;2024-02-26T08:57:54;6.22;;;3.85;;
6671;SDS011;3372;48.690;12.362;2024-02-26T09:00:20;6.03;;;3.97;;
6671;SDS011;3372;48.690;12.362;2024-02-26T09:02:47;7.45;;;3.72;;
6671;SDS011;3372;48.690;12.362;2024-02-26T09:05:14;7.53;;;3.40;;
6671;SDS011;3372;48.690;12.362;2024-02-26T09:07:40;7.05;;;3.78;;
6671;SDS011;3372;48.690;12.362;2024-02-26T09:10:06;6.45;;;3.70;;
6671;SDS011;3372;48.690;12.362;2024-02-26T09:12:36;6.03;;;3.60;;
6671;SDS011;3372;48.690;12.362;2024-02-26T09:15:02;7.53;;;4.20;;
6671;SDS011;3372;48.690;12.362;2024-02-26T09:17:29;23.25;;;5.32;;
6671;SDS011;3372;48.690;12.362;2024-02-26T09:19:55;9.05;;;4.18;;
6671;SDS011;3372;48.690;12.362;2024-02-26T09:22:20;13.25;;;6.13;;
6671;SDS011;3372;48.690;12.362;2024-02-26T09:24:47;7.30;;;3.90;;
6671;SDS011;3372;48.690;12.362;2024-02-26T09:27:15;6.97;;;3.53;;
6671;SDS011;3372;48.690;12.362;2024-02-26T09:29:41;5.10;;;2.97;;
6671;SDS011;3372;48.690;12.362;2024-02-26T09:32:07;11.98;;;4.97;;
6671;SDS011;3372;48.690;12.362;2024-02-26T09:34:33;6.60;;;3.63;;
6671;SDS011;3372;48.690;12.362;2024-02-26T09:36:59;5.70;;;2.70;;
6671;SDS011;3372;48.690;12.362;2024-02-26T09:39:26;7.75;;;3.13;;
6671;SDS011;3372;48.690;12.362;2024-02-26T09:41:52;6.00;;;3.22;;
6671;SDS011;3372;48.690;12.362;2024-02-26T09:44:19;3.90;;;2.38;;
6671;SDS011;3372;48.690;12.362;2024-02-26T09:49:11;18.45;;;3.78;;
6671;SDS011;3372;48.690;12.362;2024-02-26T09:51:38;4.78;;;2.33;;
6671;SDS011;3372;48.690;12.362;2024-02-26T09:54:05;3.75;;;2.20;;
6671;SDS011;3372;48.690;12.362;2024-02-26T09:56:33;4.05;;;1.60;;
6671;SDS011;3372;48.690;12.362;2024-02-26T09:58:59;5.30;;;2.10;;
6671;SDS011;3372;48.690;12.362;2024-02-26T10:01:25;5.32;;;2.22;;
6671;SDS011;3372;48.690;12.362;2024-02-26T10:03:54;3.78;;;1.90;;
6671;SDS011;3372;48.690;12.362;2024-02-26T10:06:21;5.47;;;1.98;;
6671;SDS011;3372;48.690;12.362;2024-02-26T10:08:47;3.42;;;1.73;;
6671;SDS011;3372;48.690;12.362;2024-02-26T10:11:13;3.17;;;1.80;;
6671;SDS011;3372;48.690;12.362;2024-02-26T10:13:40;5.82;;;1.73;;
6671;SDS011;3372;48.690;12.362;2024-02-26T10:16:06;3.47;;;1.73;;
6671;SDS011;3372;48.690;12.362;2024-02-26T10:18:52;3.35;;;1.70;;
6671;SDS011;3372;48.690;12.362;2024-02-26T10:21:21;3.83;;;1.90;;
6671;SDS011;3372;48.690;12.362;2024-02-26T10:23:48;3.83;;;1.75;;
6671;SDS011;3372;48.690;12.362;2024-02-26T10:26:14;2.42;;;1.15;;
6671;SDS011;3372;48.690;12.362;2024-02-26T10:28:41;3.67;;;1.80;;
6671;SDS011;3372;48.690;12.362;2024-02-26T10:31:07;3.22;;;1.55;;
6671;SDS011;3372;48.690;12.362;2024-02-26T10:33:34;6.35;;;3.30;;
6671;SDS011;3372;48.690;12.362;2024-02-26T10:38:27;5.03;;;2.20;;
6671;SDS011;3372;48.690;12.362;2024-02-26T10:40:53;3.17;;;1.80;;
6671;SDS011;3372;48.690;12.362;2024-02-26T10:43:19;3.15;;;2.00;;
6671;SDS011;3372;48.690;12.362;2024-02-26T10:45:45;5.43;;;2.22;;
6671;SDS011;3372;48.690;12.362;2024-02-26T10:48:13;4.20;;;2.22;;
6671;SDS011;3372;48.690;12.362;2024-02-26T10:50:39;3.25;;;2.00;;
6671;SDS011;3372;48.690;12.362;2024-02-26T10:53:19;3.47;;;2.13;;
6671;SDS011;3372;48.690;12.362;2024-02-26T10:55:48;5.50;;;2.22;;
6671;SDS011;3372;48.690;12.362;2024-02-26T10:58:14;4.47;;;2.60;;
6671;SDS011;3372;48.690;12.362;2024-02-26T11:00:42;3.50;;;2.22;;
6671;SDS011;3372;48.690;12.362;2024-02-26T11:03:08;3.60;;;2.30;;
6671;SDS011;3372;48.690;12.362;2024-02-26T11:05:35;8.57;;;3.47;;
6671;SDS011;3372;48.690;12.362;2024-02-26T11:10:28;4.72;;;2.53;;
6671;SDS011;3372;48.690;12.362;2024-02-26T11:12:55;4.07;;;1.80;;
6671;SDS011;3372;48.690;12.362;2024-02-26T11:15:21;5.47;;;2.33;;
6671;SDS011;3372;48.690;12.362;2024-02-26T11:17:48;4.50;;;1.80;;
6671;SDS011;3372;48.690;12.362;2024-02-26T11:20:14;3.35;;;1.95;;
6671;SDS011;3372;48.690;12.362;2024-02-26T11:22:40;4.60;;;2.22;;
6671;SDS011;3372;48.690;12.362;2024-02-26T11:25:06;5.88;;;2.20;;
6671;SDS011;3372;48.690;12.362;2024-02-26T11:27:35;4.07;;;2.20;;
6671;SDS011;3372;48.690;12.362;2024-02-26T11:30:03;3.13;;;2.05;;
6671;SDS011;3372;48.690;12.362;2024-02-26T11:32:30;3.83;;;1.50;;
6671;SDS011;3372;48.690;12.362;2024-02-26T11:34:57;5.32;;;2.25;;
6671;SDS011;3372;48.690;12.362;2024-02-26T11:37:23;4.10;;;2.03;;
6671;SDS011;3372;48.690;12.362;2024-02-26T11:39:51;5.65;;;1.90;;
6671;SDS011;3372;48.690;12.362;2024-02-26T11:42:17;3.42;;;2.13;;
6671;SDS011;3372;48.690;12.362;2024-02-26T11:44:48;4.40;;;2.35;;
6671;SDS011;3372;48.690;12.362;2024-02-26T11:47:21;3.78;;;2.17;;
6671;SDS011;3372;48.690;12.362;2024-02-26T11:49:47;5.90;;;4.45;;
6671;SDS011;3372;48.690;12.362;2024-02-26T11:52:14;5.47;;;3.78;;
6671;SDS011;3372;48.690;12.362;2024-02-26T11:54:47;5.45;;;3.60;;
6671;SDS011;3372;48.690;12.362;2024-02-26T11:59:49;6.65;;;2.97;;
6671;SDS011;3372;48.690;12.362;2024-02-26T12:05:01;4.75;;;2.65;;
6671;SDS011;3372;48.690;12.362;2024-02-26T12:07:27;5.22;;;2.65;;
6671;SDS011;3372;48.690;12.362;2024-02-26T12:09:56;4.53;;;2.35;;
6671;SDS011;3372;48.690;12.362;2024-02-26T12:12:38;7.15;;;2.67;;
6671;SDS011;3372;48.690;12.362;2024-02-26T12:15:05;4.38;;;2.67;;
6671;SDS011;3372;48.690;12.362;2024-02-26T12:17:31;4.95;;;2.10;;
6671;SDS011;3372;48.690;12.362;2024-02-26T12:20:07;4.90;;;2.75;;
6671;SDS011;3372;48.690;12.362;2024-02-26T12:22:34;5.53;;;2.85;;
6671;SDS011;3372;48.690;12.362;2024-02-26T12:25:02;3.92;;;2.92;;
6671;SDS011;3372;48.690;12.362;2024-02-26T12:27:28;3.75;;;2.22;;
6671;SDS011;3372;48.690;12.362;2024-02-26T12:29:54;4.15;;;2.17;;
6671;SDS011;3372;48.690;12.362;2024-02-26T12:32:20;4.47;;;2.53;;
6671;SDS011;3372;48.690;12.362;2024-02-26T12:34:46;7.40;;;2.75;;
6671;SDS011;3372;48.690;12.362;2024-02-26T12:37:13;3.50;;;2.10;;
6671;SDS011;3372;48.690;12.362;2024-02-26T12:39:39;4.80;;;2.50;;
6671;SDS011;3372;48.690;12.362;2024-02-26T12:42:05;3.60;;;1.52;;
6671;SDS011;3372;48.690;12.362;2024-02-26T12:44:31;4.43;;;2.13;;
6671;SDS011;3372;48.690;12.362;2024-02-26T12:47:03;3.30;;;2.13;;
6671;SDS011;3372;48.690;12.362;2024-02-26T12:49:29;3.20;;;1.80;;
6671;SDS011;3372;48.690;12.362;2024-02-26T12:51:55;3.95;;;2.00;;
6671;SDS011;3372;48.690;12.362;2024-02-26T12:54:27;3.45;;;2.45;;
6671;SDS011;3372;48.690;12.362;2024-02-26T12:56:54;4.30;;;2.45;;
6671;SDS011;3372;48.690;12.362;2024-02-26T12:59:20;3.47;;;1.70;;
6671;SDS011;3372;48.690;12.362;2024-02-26T13:01:46;3.35;;;1.90;;
6671;SDS011;3372;48.690;12.362;2024-02-26T13:04:12;2.75;;;1.75;;
6671;SDS011;3372;48.690;12.362;2024-02-26T13:06:38;5.25;;;1.98;;
6671;SDS011;3372;48.690;12.362;2024-02-26T13:09:04;3.60;;;1.98;;
6671;SDS011;3372;48.690;12.362;2024-02-26T13:11:31;3.88;;;2.30;;
6671;SDS011;3372;48.690;12.362;2024-02-26T13:16:24;3.25;;;1.88;;
6671;SDS011;3372;48.690;12.362;2024-02-26T13:18:50;4.47;;;2.08;;
6671;SDS011;3372;48.690;12.362;2024-02-26T13:21:18;3.47;;;1.60;;
6671;SDS011;3372;48.690;12.362;2024-02-26T13:23:48;3.42;;;1.58;;
6671;SDS011;3372;48.690;12.362;2024-02-26T13:26:15;3.35;;;1.63;;
6671;SDS011;3372;48.690;12.362;2024-02-26T13:28:41;4.82;;;2.20;;
6671;SDS011;3372;48.690;12.362;2024-02-26T13:31:07;3.53;;;1.80;;
6671;SDS011;3372;48.690;12.362;2024-02-26T13:33:34;3.50;;;1.70;;
6671;SDS011;3372;48.690;12.362;2024-02-26T13:36:00;5.50;;;2.03;;
6671;SDS011;3372;48.690;12.362;2024-02-26T13:38:26;4.28;;;1.67;;
6671;SDS011;3372;48.690;12.362;2024-02-26T13:40:56;3.13;;;1.58;;
6671;SDS011;3372;48.690;12.362;2024-02-26T13:43:22;2.45;;;1.30;;
6671;SDS011;3372;48.690;12.362;2024-02-26T13:45:48;4.05;;;1.63;;
6671;SDS011;3372;48.690;12.362;2024-02-26T13:48:14;3.75;;;1.85;;
6671;SDS011;3372;48.690;12.362;2024-02-26T13:50:40;3.45;;;1.58;;
6671;SDS011;3372;48.690;12.362;2024-02-26T13:53:08;3.10;;;1.63;;
6671;SDS011;3372;48.690;12.362;2024-02-26T13:55:34;3.60;;;1.90;;
6671;SDS011;3372;48.690;12.362;2024-02-26T13:58:01;4.47;;;1.92;;
6671;SDS011;3372;48.690;12.362;2024-02-26T14:00:27;3.42;;;2.33;;
6671;SDS011;3372;48.690;12.362;2024-02-26T14:02:54;5.82;;;1.75;;
6671;SDS011;3372;48.690;12.362;2024-02-26T14:05:20;3.65;;;1.70;;
6671;SDS011;3372;48.690;12.362;2024-02-26T14:07:46;3.10;;;1.35;;
6671;SDS011;3372;48.690;12.362;2024-02-26T14:10:12;3.28;;;1.52;;
6671;SDS011;3372;48.690;12.362;2024-02-26T14:12:38;2.72;;;1.65;;
6671;SDS011;3372;48.690;12.362;2024-02-26T14:15:08;2.67;;;1.58;;
6671;SDS011;3372;48.690;12.362;2024-02-26T14:17:35;3.58;;;1.50;;
6671;SDS011;3372;48.690;12.362;2024-02-26T14:20:01;2.88;;;1.52;;
6671;SDS011;3372;48.690;12.362;2024-02-26T14:22:28;4.35;;;1.48;;
6671;SDS011;3372;48.690;12.362;2024-02-26T14:24:55;2.70;;;1.25;;
6671;SDS011;3372;48.690;12.362;2024-02-26T14:27:21;2.65;;;1.02;;
6671;SDS011;3372;48.690;12.362;2024-02-26T14:29:47;3.13;;;1.13;;
6671;SDS011;3372;48.690;12.362;2024-02-26T14:32:14;5.78;;;1.45;;
6671;SDS011;3372;48.690;12.362;2024-02-26T14:34:40;2.80;;;1.20;;
6671;SDS011;3372;48.690;12.362;2024-02-26T14:37:05;2.47;;;0.98;;
6671;SDS011;3372;48.690;12.362;2024-02-26T14:39:32;2.53;;;1.60;;
6671;SDS011;3372;48.690;12.362;2024-02-26T14:41:58;3.55;;;1.58;;
6671;SDS011;3372;48.690;12.362;2024-02-26T14:44:24;3.72;;;0.95;;
6671;SDS011;3372;48.690;12.362;2024-02-26T14:46:50;2.42;;;1.13;;
6671;SDS011;3372;48.690;12.362;2024-02-26T14:49:17;1.85;;;0.93;;
6671;SDS011;3372;48.690;12.362;2024-02-26T14:51:43;2.65;;;0.95;;
6671;SDS011;3372;48.690;12.362;2024-02-26T14:54:10;5.85;;;1.95;;
6671;SDS011;3372;48.690;12.362;2024-02-26T14:56:36;2.70;;;1.83;;
6671;SDS011;3372;48.690;12.362;2024-02-26T14:59:02;4.45;;;2.17;;
6671;SDS011;3372;48.690;12.362;2024-02-26T15:01:28;2.40;;;1.63;;
6671;SDS011;3372;48.690;12.362;2024-02-26T15:03:54;8.02;;;2.85;;
6671;SDS011;3372;48.690;12.362;2024-02-26T15:06:20;2.50;;;1.13;;